Time;durP1;ratioP1;P1;durP2;ratioP2;P2;SDS_P1;SDS_P2;PMS_P1;PMS_P2;Temp;Humidity;BMP_temperature;BMP_pressure;BME280_temperature;BME280_humidity;BME280_pressure;Samples;Min_cycle;Max_cycle;Signal;HPM_P1;HPM_P2
2020/12/16 00:01:10;;;;;;;12.93;5.50;;;;;;;5.39;83.28;101230.44;5043389;28;20055;-69
2020/12/16 00:04:16;;;;;;;10.20;5.93;;;;;;;5.35;82.54;101222.66;5038974;28;20056;-66
2020/12/16 00:06:45;;;;;;;8.70;5.32;;;;;;;5.21;82.76;101222.53;5037340;28;20403;-69
2020/12/16 00:09:11;;;;;;;8.15;5.00;;;;;;;5.18;82.78;101218.19;5035441;28;20054;-69
2020/12/16 00:11:37;;;;;;;12.57;5.68;;;;;;;5.16;83.35;101224.19;5042010;28;20100;-68
2020/12/16 00:14:03;;;;;;;11.50;6.97;;;;;;;5.17;83.90;101231.09;5039740;28;20053;-68
2020/12/16 00:16:32;;;;;;;14.40;7.05;;;;;;;5.18;84.43;101245.72;5041349;28;20048;-69
2020/12/16 00:18:58;;;;;;;16.55;5.90;;;;;;;5.15;85.16;101241.38;5041989;28;20114;-68
2020/12/16 00:21:24;;;;;;;16.70;6.60;;;;;;;5.18;84.29;101235.41;5041053;28;20521;-69
2020/12/16 00:23:50;;;;;;;10.27;5.85;;;;;;;5.20;84.18;101238.84;5038524;28;20052;-69
2020/12/16 00:26:16;;;;;;;11.07;6.40;;;;;;;5.14;84.46;101235.34;5039664;28;20084;-68
2020/12/16 00:28:43;;;;;;;10.63;6.43;;;;;;;5.26;84.56;101241.50;5042057;28;20060;-67
2020/12/16 00:31:11;;;;;;;11.65;6.63;;;;;;;5.27;84.69;101231.19;5041011;28;20052;-68
2020/12/16 00:33:38;;;;;;;12.88;6.50;;;;;;;5.27;84.64;101238.06;5036776;28;20503;-68
2020/12/16 00:36:04;;;;;;;12.60;7.68;;;;;;;5.16;84.80;101235.38;5047895;28;20123;-68
2020/12/16 00:38:30;;;;;;;15.23;7.03;;;;;;;5.26;85.19;101242.34;5041603;28;20537;-69
2020/12/16 00:40:56;;;;;;;13.40;7.45;;;;;;;5.26;84.85;101247.50;5041842;28;20194;-69
2020/12/16 00:43:21;;;;;;;12.48;6.38;;;;;;;5.32;84.00;101251.88;5038493;28;22016;-68
2020/12/16 00:45:48;;;;;;;11.60;6.28;;;;;;;5.21;83.65;101254.34;5038997;28;20045;-69
2020/12/16 00:48:14;;;;;;;11.50;6.20;;;;;;;5.17;83.08;101259.44;5041286;28;20053;-69
2020/12/16 00:50:41;;;;;;;12.95;7.43;;;;;;;5.10;82.58;101255.94;5038878;28;20041;-68
2020/12/16 00:53:07;;;;;;;12.40;7.18;;;;;;;5.04;82.81;101250.72;5037974;28;20045;-67
2020/12/16 00:55:33;;;;;;;13.55;6.57;;;;;;;5.02;82.70;101252.41;5039475;28;20069;-68
2020/12/16 00:57:59;;;;;;;13.85;7.32;;;;;;;4.90;83.21;101259.13;5038339;28;20052;-69
2020/12/16 01:00:24;;;;;;;17.83;7.20;;;;;;;4.91;83.07;101262.56;5040496;28;20143;-69
2020/12/16 01:02:51;;;;;;;15.00;7.10;;;;;;;4.80;82.39;101262.44;5040478;28;20135;-69
2020/12/16 01:05:19;;;;;;;11.48;6.63;;;;;;;4.71;81.78;101259.75;5036230;28;20049;-69
2020/12/16 01:07:46;;;;;;;10.63;5.43;;;;;;;4.69;81.87;101267.47;5042900;28;20040;-69
2020/12/16 01:10:15;;;;;;;11.60;5.63;;;;;;;4.55;81.20;101269.81;5040504;28;20045;-69
2020/12/16 01:12:43;;;;;;;8.32;4.60;;;;;;;4.55;81.37;101272.41;5040689;28;20045;-69
2020/12/16 01:15:11;;;;;;;9.20;5.13;;;;;;;4.53;81.96;101265.50;5040110;28;20473;-69
2020/12/16 01:17:40;;;;;;;7.60;4.53;;;;;;;4.48;81.99;101270.59;5042015;28;20056;-69
2020/12/16 01:20:07;;;;;;;8.38;4.82;;;;;;;4.48;81.46;101268.88;5040861;28;20060;-69
2020/12/16 01:22:37;;;;;;;9.57;4.93;;;;;;;4.40;81.62;101269.63;5039820;28;20670;-69
2020/12/16 01:25:05;;;;;;;8.25;5.25;;;;;;;4.41;81.70;101266.19;5041371;28;20103;-69
2020/12/16 01:27:31;;;;;;;8.60;4.57;;;;;;;4.40;82.49;101267.03;5039231;28;20057;-69
2020/12/16 01:33:19;;;;;;;11.35;6.80;;;;;;;4.34;83.61;101268.66;5033607;28;20063;-68
2020/12/16 01:35:44;;;;;;;12.10;6.65;;;;;;;4.41;84.52;101264.47;5042627;28;20057;-68
2020/12/16 01:38:10;;;;;;;11.25;6.72;;;;;;;4.48;85.68;101270.59;5043118;28;20155;-68
2020/12/16 01:40:37;;;;;;;14.10;8.20;;;;;;;4.60;86.37;101267.31;5039771;28;20458;-68
2020/12/16 01:43:03;;;;;;;17.50;8.07;;;;;;;4.71;87.75;101267.47;5040031;28;20056;-68
2020/12/16 01:45:29;;;;;;;17.17;8.88;;;;;;;4.78;88.22;101272.75;5040455;28;20056;-68
2020/12/16 01:51:18;;;;;;;12.50;7.75;;;;;;;4.92;88.19;101272.91;5036145;28;20202;-68
2020/12/16 01:53:45;;;;;;;13.95;8.27;;;;;;;4.98;88.13;101270.41;5040180;28;20077;-68
2020/12/16 01:56:13;;;;;;;14.93;8.63;;;;;;;5.02;88.18;101280.75;5038224;28;20175;-69
2020/12/16 01:58:41;;;;;;;12.32;7.22;;;;;;;5.07;88.05;101273.94;5044277;28;20049;-68
2020/12/16 02:01:07;;;;;;;16.52;9.18;;;;;;;5.08;87.21;101275.66;5040084;28;20473;-69
2020/12/16 02:03:37;;;;;;;14.70;8.13;;;;;;;5.14;86.89;101278.34;5038618;28;20064;-68
2020/12/16 02:06:06;;;;;;;12.55;7.43;;;;;;;5.15;86.92;101277.47;5036957;28;20057;-68
2020/12/16 02:08:36;;;;;;;15.02;7.53;;;;;;;5.15;86.48;101280.03;5037736;28;20037;-69
2020/12/16 02:11:02;;;;;;;15.55;5.90;;;;;;;5.14;85.72;101280.91;5039482;28;20790;-67
2020/12/16 02:13:29;;;;;;;12.60;7.05;;;;;;;5.06;85.63;101282.50;5039088;28;20049;-68
2020/12/16 02:15:55;;;;;;;11.13;7.25;;;;;;;5.03;85.11;101285.06;5038158;28;20053;-68
2020/12/16 02:18:21;;;;;;;12.52;7.82;;;;;;;5.00;84.91;101285.03;5038674;28;20402;-68
2020/12/16 02:20:47;;;;;;;11.70;6.43;;;;;;;4.97;85.51;101286.72;5038119;28;20126;-67
2020/12/16 02:23:18;;;;;;;14.38;8.98;;;;;;;4.98;84.97;101295.34;5038669;28;20045;-68
2020/12/16 02:25:46;;;;;;;12.88;7.50;;;;;;;4.95;85.96;101296.13;5040147;28;20041;-68
2020/12/16 02:28:12;;;;;;;16.90;8.05;;;;;;;4.95;85.36;101296.13;5040252;28;20162;-68
2020/12/16 02:30:38;;;;;;;11.75;6.70;;;;;;;4.96;85.25;101305.59;5039764;28;20068;-68
2020/12/16 02:33:04;;;;;;;11.88;6.88;;;;;;;4.96;85.56;101307.34;5063247;23;20438;-70
2020/12/16 02:35:30;;;;;;;11.65;7.10;;;;;;;4.93;85.84;101300.44;5056684;28;20072;-72
2020/12/16 02:37:55;;;;;;;15.93;7.60;;;;;;;4.95;85.93;101297.88;5056773;28;20099;-72
2020/12/16 02:40:22;;;;;;;13.38;8.60;;;;;;;4.97;86.46;101298.75;5059557;28;20594;-72
2020/12/16 02:42:49;;;;;;;11.52;7.40;;;;;;;5.03;86.39;101300.53;5058627;28;20053;-72
2020/12/16 02:45:15;;;;;;;13.82;7.38;;;;;;;5.06;86.93;101293.72;5058399;28;20041;-71
2020/12/16 02:47:40;;;;;;;12.35;8.07;;;;;;;5.08;86.42;101291.13;5059588;28;20045;-74
2020/12/16 02:50:06;;;;;;;12.27;8.10;;;;;;;5.10;86.45;101292.88;5056158;28;20064;-72
2020/12/16 02:52:32;;;;;;;16.40;8.35;;;;;;;5.11;86.93;101292.03;5059921;28;20049;-71
2020/12/16 02:54:58;;;;;;;15.43;8.05;;;;;;;5.13;86.79;101289.50;5058635;28;20437;-72
2020/12/16 02:57:24;;;;;;;12.88;7.72;;;;;;;5.17;86.06;101286.09;5060730;28;20071;-72
2020/12/16 02:59:55;;;;;;;12.68;7.50;;;;;;;5.21;86.30;101285.28;5059581;28;20071;-72
2020/12/16 03:02:21;;;;;;;14.05;8.18;;;;;;;5.14;85.91;101289.50;5067314;28;20094;-72
2020/12/16 03:04:47;;;;;;;12.95;6.47;;;;;;;5.18;85.99;101295.56;5059497;28;20052;-72
2020/12/16 03:07:13;;;;;;;10.68;6.57;;;;;;;5.18;85.42;101294.72;5060128;28;20056;-73
2020/12/16 03:09:39;;;;;;;10.73;7.10;;;;;;;5.12;84.80;101300.66;5059483;28;20055;-71
2020/12/16 03:12:05;;;;;;;10.20;6.85;;;;;;;5.06;84.86;101295.41;5057191;28;20057;-71
2020/12/16 03:14:31;;;;;;;11.43;6.78;;;;;;;5.04;85.03;101295.41;5058366;28;20505;-70
2020/12/16 03:16:58;;;;;;;11.48;7.82;;;;;;;5.06;84.97;101287.66;5059106;28;20098;-72
2020/12/16 03:19:24;;;;;;;9.88;6.65;;;;;;;5.05;85.18;101284.25;5057109;28;20063;-72
2020/12/16 03:21:52;;;;;;;11.18;6.72;;;;;;;5.04;84.62;101279.06;5059028;28;20506;-72
2020/12/16 03:24:59;;;;;;;10.70;6.22;;;;;;;4.92;83.93;101267.75;5056173;28;20041;-72
2020/12/16 03:30:46;;;;;;;14.52;6.88;;;;;;;4.63;84.05;101259.63;5077842;28;20421;-71
2020/12/16 03:33:13;;;;;;;13.63;6.45;;;;;;;4.59;84.31;101258.72;5057906;28;20540;-74
2020/12/16 03:35:39;;;;;;;11.50;6.80;;;;;;;4.56;84.31;101268.97;5063409;28;20053;-69
2020/12/16 03:38:05;;;;;;;10.45;5.78;;;;;;;4.60;84.83;101267.31;5062223;28;20071;-72
2020/12/16 03:40:31;;;;;;;11.05;6.18;;;;;;;4.58;84.75;101269.88;5062740;28;20471;-70
2020/12/16 03:42:57;;;;;;;11.52;6.60;;;;;;;4.61;85.21;101269.94;5061694;28;20816;-72
2020/12/16 03:45:23;;;;;;;11.77;6.22;;;;;;;4.63;85.45;101275.09;5062341;28;20053;-72
2020/12/16 03:47:49;;;;;;;14.50;8.65;;;;;;;4.73;85.82;101274.38;5064382;28;20456;-73
2020/12/16 03:50:15;;;;;;;12.55;7.18;;;;;;;4.76;85.80;101273.53;5059316;28;20497;-72
2020/12/16 03:52:41;;;;;;;12.10;7.57;;;;;;;4.76;85.18;101270.97;5060173;28;20049;-71
2020/12/16 03:55:07;;;;;;;10.80;6.38;;;;;;;4.71;85.28;101272.63;5061314;28;20050;-71
2020/12/16 03:57:33;;;;;;;11.05;6.03;;;;;;;4.71;84.26;101282.94;5061731;28;20044;-72
2020/12/16 04:00:00;;;;;;;9.68;6.10;;;;;;;4.63;84.26;101281.13;5063225;28;20398;-72
2020/12/16 04:02:26;;;;;;;10.13;5.38;;;;;;;4.64;84.29;101279.41;5061193;28;20064;-72
2020/12/16 04:04:52;;;;;;;13.50;5.70;;;;;;;4.62;84.03;101284.53;5063072;28;20067;-71
2020/12/16 04:07:18;;;;;;;11.30;5.93;;;;;;;4.49;84.04;101274.91;5061341;28;20094;-72
2020/12/16 04:09:44;;;;;;;8.23;5.15;;;;;;;4.52;83.20;101277.53;5062204;28;20040;-72
2020/12/16 04:12:10;;;;;;;10.20;4.85;;;;;;;4.48;83.13;101271.47;5061518;28;20429;-71
2020/12/16 04:14:36;;;;;;;7.55;4.45;;;;;;;4.40;82.67;101267.88;5062164;28;20045;-72
2020/12/16 04:17:03;;;;;;;19.65;7.90;;;;;;;4.25;83.47;101268.53;5060730;28;20068;-72
2020/12/16 04:19:29;;;;;;;14.77;7.20;;;;;;;4.25;82.94;101268.53;5061310;28;20045;-71
2020/12/16 04:21:56;;;;;;;23.10;7.55;;;;;;;4.24;84.11;101268.50;5062724;28;20516;-72
2020/12/16 04:24:22;;;;;;;13.18;6.28;;;;;;;4.22;84.39;101267.63;5060068;28;20060;-72
2020/12/16 04:26:49;;;;;;;14.93;5.47;;;;;;;4.24;83.92;101264.25;5060473;28;20060;-73
2020/12/16 04:29:15;;;;;;;13.48;4.75;;;;;;;4.24;84.29;101266.81;5062452;28;21810;-72
2020/12/16 04:31:41;;;;;;;9.80;4.32;;;;;;;4.17;84.84;101271.00;5058494;28;20067;-73
2020/12/16 04:34:06;;;;;;;8.57;4.72;;;;;;;4.17;84.59;101272.69;5062682;28;20437;-72
2020/12/16 04:36:32;;;;;;;9.52;4.78;;;;;;;4.17;84.17;101272.69;5062300;28;20048;-72
2020/12/16 04:38:58;;;;;;;8.77;4.75;;;;;;;4.14;84.59;101276.09;5063631;28;20053;-72
2020/12/16 04:41:25;;;;;;;11.32;5.22;;;;;;;4.09;84.59;101280.31;5060213;28;20146;-71
2020/12/16 04:43:54;;;;;;;12.85;7.35;;;;;;;4.10;84.96;101291.47;5060426;28;20147;-73
2020/12/16 04:46:21;;;;;;;11.85;5.30;;;;;;;4.09;85.00;101292.31;5061634;28;20098;-70
2020/12/16 04:48:47;;;;;;;10.60;6.38;;;;;;;4.18;85.31;101302.75;5057492;28;20529;-72
2020/12/16 04:51:16;;;;;;;11.93;5.80;;;;;;;4.20;84.85;101298.50;5061482;28;20044;-72
2020/12/16 04:53:44;;;;;;;9.38;5.70;;;;;;;4.26;84.94;101306.31;5061182;28;20051;-72
2020/12/16 04:56:12;;;;;;;10.50;6.25;;;;;;;4.27;85.06;101302.91;5060902;28;20181;-73
2020/12/16 04:58:39;;;;;;;9.90;5.65;;;;;;;4.34;84.51;101304.72;5057079;28;20047;-72
2020/12/16 05:01:05;;;;;;;9.35;6.05;;;;;;;4.30;83.58;101300.38;5058506;28;20056;-72
2020/12/16 05:03:31;;;;;;;11.75;4.90;;;;;;;4.31;83.21;101299.53;5059062;28;20052;-72
2020/12/16 05:05:57;;;;;;;13.55;6.13;;;;;;;4.21;82.65;101292.50;5060315;28;20429;-72
2020/12/16 05:08:23;;;;;;;12.00;5.68;;;;;;;4.08;82.90;101291.44;5059426;28;20102;-74
2020/12/16 05:10:49;;;;;;;13.13;6.22;;;;;;;4.10;82.81;101294.03;5058657;28;20474;-73
2020/12/16 05:13:17;;;;;;;14.10;7.18;;;;;;;4.04;82.99;101290.50;5059441;28;20052;-71
2020/12/16 05:15:45;;;;;;;10.80;6.00;;;;;;;3.96;82.28;101286.94;5062222;28;20450;-72
2020/12/16 05:18:14;;;;;;;12.07;5.78;;;;;;;3.89;83.16;101285.13;5058642;28;20056;-70
2020/12/16 05:20:42;;;;;;;11.68;5.93;;;;;;;3.95;83.30;101290.34;5060943;28;20050;-72
2020/12/16 05:23:08;;;;;;;11.98;6.13;;;;;;;3.94;83.66;101287.75;5059259;28;20048;-73
2020/12/16 05:25:35;;;;;;;11.40;6.85;;;;;;;3.94;83.99;101291.22;5057363;28;20045;-72
2020/12/16 05:28:02;;;;;;;13.43;7.40;;;;;;;3.93;83.93;101296.31;5060452;28;20228;-72
2020/12/16 05:30:28;;;;;;;11.18;6.28;;;;;;;3.93;84.11;101291.19;5058930;28;20052;-72
2020/12/16 05:32:55;;;;;;;13.10;5.80;;;;;;;3.95;83.78;101287.78;5059957;28;20158;-71
2020/12/16 05:35:27;;;;;;;10.13;5.80;;;;;;;3.99;83.47;101287.00;5060003;28;20275;-72
2020/12/16 05:38:01;;;;;;;13.80;6.70;;;;;;;3.93;83.28;101292.06;5059552;28;20131;-72
2020/12/16 05:40:29;;;;;;;12.27;6.43;;;;;;;3.90;83.59;101292.00;5058070;28;20056;-74
2020/12/16 05:42:56;;;;;;;10.55;6.13;;;;;;;3.96;84.28;101286.09;5059196;28;20083;-71
2020/12/16 05:45:24;;;;;;;13.10;7.10;;;;;;;3.88;84.03;101280.81;5059735;28;20044;-72
2020/12/16 05:48:03;;;;;;;18.25;9.27;;;;;;;3.82;84.28;101285.84;5059240;28;20457;-75
2020/12/16 05:50:33;;;;;;;28.65;12.75;;;;;;;3.82;84.09;101278.13;5055519;28;20060;-73
2020/12/16 05:53:10;;;;;;;28.08;13.35;;;;;;;3.81;83.94;101276.41;5059588;28;20109;-71
2020/12/16 05:55:36;;;;;;;21.67;11.43;;;;;;;3.79;83.97;101275.50;5058679;28;20060;-74
2020/12/16 05:58:07;;;;;;;23.60;11.43;;;;;;;3.72;84.68;101270.25;5061042;28;20804;-74
2020/12/16 06:00:42;;;;;;;25.52;10.27;;;;;;;3.70;85.21;101277.06;5058408;28;20045;-72
2020/12/16 06:03:14;;;;;;;24.25;12.57;;;;;;;3.66;85.98;101277.00;5058394;28;20059;-74
2020/12/16 06:05:40;;;;;;;20.73;10.95;;;;;;;3.78;86.81;101273.75;5059062;28;20095;-73
2020/12/16 06:08:07;;;;;;;18.77;10.40;;;;;;;3.85;87.86;101278.16;5059653;28;20052;-73
2020/12/16 06:10:34;;;;;;;18.55;9.43;;;;;;;3.93;87.46;101280.88;5057195;28;20166;-73
2020/12/16 06:13:04;;;;;;;15.30;8.23;;;;;;;3.97;87.07;101273.22;5058741;28;20135;-74
2020/12/16 06:15:43;;;;;;;14.73;8.13;;;;;;;4.04;86.67;101272.50;5058432;28;20071;-73
2020/12/16 06:18:14;;;;;;;16.40;8.15;;;;;;;4.04;85.97;101284.50;5056561;28;20041;-73
2020/12/16 06:20:41;;;;;;;15.45;9.15;;;;;;;4.12;86.57;101297.50;5059690;28;20067;-75
2020/12/16 06:23:14;;;;;;;17.63;9.38;;;;;;;4.01;85.22;101297.31;5058152;28;20044;-73
2020/12/16 06:25:47;;;;;;;17.25;9.20;;;;;;;4.02;85.13;101306.78;5057268;28;20151;-72
2020/12/16 06:28:14;;;;;;;18.73;9.23;;;;;;;4.01;86.59;101305.91;5058585;28;20083;-72
2020/12/16 06:30:51;;;;;;;16.30;8.90;;;;;;;3.99;86.74;101323.03;5061058;28;20067;-73
2020/12/16 06:33:27;;;;;;;19.42;9.32;;;;;;;4.03;86.57;101317.13;5059153;28;20195;-72
2020/12/16 06:35:58;;;;;;;17.02;9.60;;;;;;;4.12;87.28;101315.53;5058826;28;20068;-72
2020/12/16 06:38:24;;;;;;;16.05;9.95;;;;;;;4.17;87.34;101317.34;5058955;28;20049;-72
2020/12/16 06:40:52;;;;;;;19.95;10.30;;;;;;;4.18;86.61;101323.34;5058257;28;20102;-72
2020/12/16 06:43:37;;;;;;;19.30;11.85;;;;;;;4.22;87.57;101325.16;5056567;28;20056;-74
2020/12/16 06:46:05;;;;;;;17.40;9.48;;;;;;;4.27;87.60;101320.06;5057965;28;20086;-72
2020/12/16 06:48:36;;;;;;;16.75;9.40;;;;;;;4.29;86.79;101315.81;5059026;28;20056;-73
2020/12/16 06:51:15;;;;;;;18.85;9.98;;;;;;;4.31;85.98;101314.09;5057243;28;20052;-73
2020/12/16 06:53:41;;;;;;;13.02;8.43;;;;;;;4.26;85.69;101319.19;5059907;28;20053;-74
2020/12/16 06:56:07;;;;;;;15.95;9.23;;;;;;;4.22;85.18;101320.00;5057333;28;20061;-73
2020/12/16 06:58:37;;;;;;;18.75;9.27;;;;;;;4.19;84.81;101317.34;5059410;28;20516;-73
2020/12/16 07:01:13;;;;;;;16.45;9.75;;;;;;;4.15;85.57;101324.16;5059378;28;20056;-73
2020/12/16 07:03:41;;;;;;;16.30;9.32;;;;;;;4.15;85.04;101324.16;5057395;28;20053;-72
2020/12/16 07:06:11;;;;;;;19.15;11.57;;;;;;;4.10;85.30;101332.66;5061462;28;20056;-70
2020/12/16 07:08:37;;;;;;;18.30;11.13;;;;;;;4.02;85.65;101330.81;5061680;28;20408;-72
2020/12/16 07:11:04;;;;;;;18.55;12.32;;;;;;;4.00;85.32;101335.06;5062285;28;20060;-72
2020/12/16 07:13:32;;;;;;;32.88;17.25;;;;;;;4.02;85.59;101330.81;5063129;28;20052;-72
2020/12/16 07:16:03;;;;;;;21.88;12.65;;;;;;;4.02;84.80;101333.41;5060470;28;20056;-72
2020/12/16 07:18:43;;;;;;;17.30;11.68;;;;;;;3.98;84.67;101334.19;5064156;28;20049;-73
2020/12/16 07:21:31;;;;;;;20.67;11.23;;;;;;;3.96;84.11;101330.69;5062137;28;20056;-72
2020/12/16 07:24:01;;;;;;;19.17;9.77;;;;;;;3.99;84.47;101332.47;5056481;28;20121;-72
2020/12/16 07:26:29;;;;;;;20.83;11.57;;;;;;;3.87;83.72;101333.09;5060667;28;20048;-74
2020/12/16 07:28:57;;;;;;;17.05;10.13;;;;;;;3.90;84.56;101338.31;5060648;28;20045;-73
2020/12/16 07:31:23;;;;;;;17.83;9.65;;;;;;;3.93;84.46;101340.06;5061452;28;20049;-72
2020/12/16 07:33:51;;;;;;;17.67;9.70;;;;;;;3.98;85.07;101341.03;5061845;28;20153;-74
2020/12/16 07:36:19;;;;;;;15.93;9.90;;;;;;;4.03;84.85;101344.56;5067439;28;20056;-73
2020/12/16 07:38:53;;;;;;;18.92;10.45;;;;;;;4.08;85.22;101344.63;5061973;28;20079;-72
2020/12/16 07:41:27;;;;;;;17.20;10.27;;;;;;;4.14;85.44;101349.91;5059955;28;20072;-73
2020/12/16 07:43:55;;;;;;;16.85;10.10;;;;;;;4.17;85.10;101340.53;5061112;28;20445;-72
2020/12/16 07:46:22;;;;;;;18.63;10.18;;;;;;;4.21;84.62;101341.44;5060066;28;20071;-73
2020/12/16 07:48:50;;;;;;;18.02;10.90;;;;;;;4.21;85.84;101344.00;5063590;28;20239;-71
2020/12/16 07:51:18;;;;;;;18.42;11.15;;;;;;;4.25;85.64;101344.91;5059239;28;20044;-73
2020/12/16 07:53:45;;;;;;;24.98;11.75;;;;;;;4.32;85.43;101347.63;5062175;28;20833;-69
2020/12/16 07:56:11;;;;;;;29.88;13.82;;;;;;;5.37;94.51;101337.94;5060476;28;20231;-69
2020/12/16 07:58:37;;;;;;;20.98;13.43;;;;;;;6.06;95.58;101331.78;5060367;28;20044;-69
2020/12/16 08:01:10;;;;;;;16.08;9.88;;;;;;;5.85;95.12;101332.41;5062573;28;20045;-69
2020/12/16 08:03:38;;;;;;;19.80;11.60;;;;;;;5.62;94.01;101335.63;5060823;28;20558;-71
2020/12/16 08:06:05;;;;;;;17.95;9.98;;;;;;;5.48;92.14;101326.88;5069281;28;20048;-68
2020/12/16 08:08:31;;;;;;;14.90;9.82;;;;;;;5.38;90.34;101323.31;5068959;28;20048;-69
2020/12/16 08:10:57;;;;;;;20.98;11.85;;;;;;;5.26;89.56;101324.88;5072945;28;20060;-68
2020/12/16 08:13:26;;;;;;;20.70;11.20;;;;;;;5.16;89.94;101324.78;5066990;28;20044;-69
2020/12/16 08:15:52;;;;;;;18.63;11.65;;;;;;;5.11;89.69;101322.13;5057423;28;20044;-69
2020/12/16 08:18:18;;;;;;;19.30;11.30;;;;;;;5.01;89.10;101320.28;5060560;28;20048;-69
2020/12/16 08:20:45;;;;;;;17.73;11.55;;;;;;;4.97;88.94;101315.06;5062471;28;20048;-68
2020/12/16 08:23:13;;;;;;;21.80;11.95;;;;;;;4.97;88.40;101320.22;5062455;28;20047;-68
2020/12/16 08:25:40;;;;;;;21.27;11.38;;;;;;;4.95;88.20;101319.34;5065495;28;20589;-68
2020/12/16 08:28:06;;;;;;;20.88;13.00;;;;;;;4.99;88.74;101315.13;5072255;28;20414;-69
2020/12/16 08:30:34;;;;;;;24.50;13.05;;;;;;;5.06;88.70;101316.91;5069062;28;20052;-69
2020/12/16 08:35:28;;;;;;;21.02;13.13;;;;;;;5.17;89.85;101319.63;5082854;23;20057;-69
2020/12/16 08:37:56;;;;;;;25.73;13.55;;;;;;;5.24;89.55;101320.56;5066598;28;20044;-67
2020/12/16 08:40:23;;;;;;;23.15;13.45;;;;;;;5.24;89.60;101318.84;5060917;28;20067;-69
2020/12/16 08:42:49;;;;;;;24.70;13.82;;;;;;;5.28;89.55;101318.03;5060289;28;20063;-67
2020/12/16 08:45:18;;;;;;;25.73;13.35;;;;;;;5.30;89.74;101318.06;5042498;28;20545;-69
2020/12/16 08:47:44;;;;;;;21.67;14.15;;;;;;;5.29;89.42;101316.34;5039046;28;20056;-69
2020/12/16 08:50:14;;;;;;;22.05;14.07;;;;;;;5.31;89.53;101309.47;5040360;28;20052;-67
2020/12/16 08:52:42;;;;;;;20.63;12.45;;;;;;;5.34;89.71;101316.41;5038937;28;20460;-68
2020/12/16 08:55:17;;;;;;;22.73;13.75;;;;;;;5.33;89.75;101318.09;5040507;28;20529;-68
2020/12/16 08:57:54;;;;;;;;;;;;;;;5.35;90.01;101321.56;5042127;28;20049;-68
2020/12/16 09:00:26;;;;;;;29.08;16.50;;;;;;;5.39;90.11;101325.03;5037770;28;19927;-67
2020/12/16 09:03:00;;;;;;;34.05;18.00;;;;;;;5.43;90.48;101327.69;5039888;28;20053;-67
2020/12/16 09:05:27;;;;;;;29.03;18.60;;;;;;;5.48;90.66;101322.56;5040459;28;20041;-69
2020/12/16 09:08:04;;;;;;;28.42;17.75;;;;;;;5.55;90.36;101332.09;5040710;28;20137;-68
2020/12/16 09:10:30;;;;;;;34.42;19.08;;;;;;;5.56;90.35;101333.84;5044267;28;20045;-67
2020/12/16 09:12:57;;;;;;;31.27;18.88;;;;;;;5.65;90.23;101332.19;5038853;28;20072;-67
2020/12/16 09:15:22;;;;;;;29.15;18.42;;;;;;;5.67;90.72;101340.84;5040274;28;20057;-69
2020/12/16 09:17:53;;;;;;;34.33;19.48;;;;;;;5.70;90.50;101336.56;5038471;28;20057;-67
2020/12/16 09:20:19;;;;;;;31.77;19.85;;;;;;;5.74;90.78;101333.19;5046255;28;20663;-67
2020/12/16 09:22:45;;;;;;;33.17;20.05;;;;;;;5.79;91.02;101330.66;5049885;28;20072;-68
2020/12/16 09:25:16;;;;;;;30.33;18.58;;;;;;;5.82;90.93;101325.53;5043070;28;20584;-66
2020/12/16 09:27:49;;;;;;;39.03;20.23;;;;;;;5.91;90.62;101329.88;5047257;28;20053;-68
2020/12/16 09:30:27;;;;;;;28.20;18.30;;;;;;;5.94;91.22;101334.25;5044669;28;20045;-69
2020/12/16 09:32:53;;;;;;;30.20;18.75;;;;;;;5.98;91.44;101331.69;5039211;28;20047;-69
2020/12/16 09:35:19;;;;;;;33.50;19.02;;;;;;;6.06;90.99;101329.19;5040135;28;20697;-68
2020/12/16 09:37:45;;;;;;;39.92;20.92;;;;;;;6.10;91.01;101324.91;5039740;28;20132;-69
2020/12/16 09:40:14;;;;;;;29.33;17.98;;;;;;;6.13;91.41;101325.84;5038208;28;20044;-65
2020/12/16 09:42:40;;;;;;;31.55;19.15;;;;;;;6.22;91.28;101328.50;5039376;28;20817;-69
2020/12/16 09:45:10;;;;;;;30.90;18.38;;;;;;;6.23;91.75;101331.94;5039257;28;20053;-67
2020/12/16 09:47:43;;;;;;;38.58;20.25;;;;;;;6.32;91.49;101331.16;5038010;28;20056;-67
2020/12/16 09:50:09;;;;;;;31.13;19.42;;;;;;;6.30;91.31;101325.94;5046217;28;20095;-69
2020/12/16 09:52:36;;;;;;;31.67;20.77;;;;;;;6.36;91.51;101322.56;5040214;28;20041;-68
2020/12/16 09:55:15;;;;;;;31.92;19.40;;;;;;;6.53;91.34;101320.97;5037736;28;20056;-68
2020/12/16 09:57:41;;;;;;;30.80;18.33;;;;;;;6.59;91.28;101320.13;5038303;28;20107;-65
2020/12/16 10:00:08;;;;;;;35.03;19.60;;;;;;;6.73;91.11;101316.78;5039382;28;20418;-64
2020/12/16 10:02:34;;;;;;;29.38;18.20;;;;;;;6.67;91.21;101328.81;5037532;28;20067;-68
2020/12/16 10:05:01;;;;;;;29.90;17.98;;;;;;;6.65;91.36;101316.72;5039905;28;20044;-68
2020/12/16 10:07:31;;;;;;;30.58;17.85;;;;;;;6.72;91.35;101315.03;5038683;28;20053;-68
2020/12/16 10:09:57;;;;;;;36.28;19.42;;;;;;;6.93;91.00;101319.50;5039617;28;20099;-68
2020/12/16 10:12:24;;;;;;;30.92;18.45;;;;;;;6.91;90.77;101316.88;5038445;28;20053;-68
2020/12/16 10:14:50;;;;;;;28.88;18.42;;;;;;;6.92;90.69;101313.44;5040699;28;20052;-68
2020/12/16 10:17:20;;;;;;;24.48;16.75;;;;;;;6.94;90.65;101306.56;5037976;28;20524;-68
2020/12/16 10:19:46;;;;;;;27.40;17.02;;;;;;;7.00;90.47;101306.56;5039878;28;20056;-69
2020/12/16 10:22:13;;;;;;;25.67;16.67;;;;;;;7.05;90.53;101298.00;5038420;28;20107;-69
2020/12/16 10:24:39;;;;;;;29.35;16.95;;;;;;;7.02;90.44;101291.09;5039591;28;20041;-69
2020/12/16 10:27:05;;;;;;;29.02;16.35;;;;;;;7.08;90.37;101298.88;5035148;28;20049;-70
2020/12/16 10:29:31;;;;;;;26.23;16.17;;;;;;;7.14;90.09;101293.69;5043464;28;20115;-67
2020/12/16 10:31:57;;;;;;;26.10;16.95;;;;;;;7.23;90.31;101289.44;5037019;28;20498;-70
2020/12/16 10:34:23;;;;;;;25.77;16.48;;;;;;;7.51;89.51;101281.75;5037005;28;20052;-68
2020/12/16 10:36:50;;;;;;;24.70;15.75;;;;;;;7.46;89.55;101285.19;5042621;28;20040;-66
2020/12/16 10:39:17;;;;;;;24.25;13.88;;;;;;;7.46;89.75;101277.41;5042783;28;20053;-69
2020/12/16 10:41:43;;;;;;;27.10;16.33;;;;;;;7.43;90.04;101282.63;5040112;28;20053;-69
2020/12/16 10:44:09;;;;;;;28.33;14.30;;;;;;;7.49;90.04;101278.28;5041552;28;20076;-69
2020/12/16 10:46:35;;;;;;;25.73;13.50;;;;;;;7.52;90.47;101278.31;5037803;28;20102;-68
2020/12/16 10:49:01;;;;;;;24.83;15.48;;;;;;;7.60;89.92;101276.59;5040025;28;20045;-69
2020/12/16 10:51:28;;;;;;;21.55;13.43;;;;;;;7.80;89.57;101268.00;5043717;28;20049;-69
2020/12/16 10:53:54;;;;;;;22.85;13.85;;;;;;;7.72;89.59;101263.69;5043191;28;20052;-67
2020/12/16 10:56:21;;;;;;;23.58;14.98;;;;;;;7.77;89.70;101267.13;5061998;28;20045;-67
2020/12/16 10:58:49;;;;;;;23.83;13.98;;;;;;;7.85;88.95;101271.44;5051240;28;20068;-67
2020/12/16 11:01:16;;;;;;;19.67;13.05;;;;;;;7.98;89.33;101265.41;5053787;28;20721;-69
2020/12/16 11:03:42;;;;;;;18.77;12.48;;;;;;;8.06;87.83;101262.81;5052909;28;20040;-68
2020/12/16 11:06:09;;;;;;;20.55;12.70;;;;;;;8.11;87.42;101273.19;5045419;28;20561;-67
2020/12/16 11:08:35;;;;;;;16.77;11.68;;;;;;;8.12;87.32;101274.91;5040235;28;20498;-66
2020/12/16 11:11:00;;;;;;;18.67;12.02;;;;;;;8.12;87.25;101269.72;5048264;28;20061;-69
2020/12/16 11:13:26;;;;;;;19.35;12.30;;;;;;;8.05;87.26;101271.44;5040643;28;20048;-69
2020/12/16 11:15:52;;;;;;;20.23;12.90;;;;;;;8.12;87.13;101269.72;5040553;28;20045;-66
2020/12/16 11:18:19;;;;;;;16.70;10.70;;;;;;;8.22;87.34;101264.53;5041391;28;20149;-65
2020/12/16 11:20:45;;;;;;;14.98;11.38;;;;;;;8.15;87.24;101267.13;5044264;28;20152;-69
2020/12/16 11:23:11;;;;;;;18.08;11.38;;;;;;;8.18;87.87;101268.00;5047044;28;20045;-67
2020/12/16 11:25:37;;;;;;;15.88;10.88;;;;;;;8.36;87.52;101263.66;5050114;28;20057;-69
2020/12/16 11:28:03;;;;;;;16.25;11.15;;;;;;;8.26;87.12;101255.00;5051663;28;20053;-67
2020/12/16 11:30:29;;;;;;;18.40;11.60;;;;;;;8.32;87.14;101256.75;5050657;28;20080;-67
2020/12/16 11:32:55;;;;;;;17.38;10.70;;;;;;;8.24;86.98;101254.16;5037043;28;20044;-68
2020/12/16 11:35:22;;;;;;;16.05;10.95;;;;;;;8.38;86.27;101260.19;5048681;28;20076;-67
2020/12/16 11:37:49;;;;;;;15.75;11.02;;;;;;;8.40;86.12;101253.28;5045843;28;20052;-67